Time;durP1;ratioP1;P1;durP2;ratioP2;P2;SDS_P1;SDS_P2;PMS_P1;PMS_P2;Temp;Humidity;BMP_temperature;BMP_pressure;BME280_temperature;BME280_humidity;BME280_pressure;Samples;Min_cycle;Max_cycle;Signal;HPM_P1;HPM_P2
2023/09/17 00:07:57;;;;;;;2.05;1.80;;;;;;;;;;12379325;23;20027;-78
2023/09/17 00:20:23;;;;;;;;;;;;;;;;;;;;;
2023/09/17 00:26:49;;;;;;;1.65;1.55;;;;;;;;;;12601954;22;20027;-78
2023/09/17 00:32:42;;;;;;;1.90;1.67;;;;;;;;;;12981827;22;20081;-77
2023/09/17 00:50:19;;;;;;;3.58;1.55;;;;;;;;;;12757362;23;20036;-83
2023/09/17 00:55:23;;;;;;;3.00;1.60;;;;;;;;;;12787023;23;20025;-83
2023/09/17 01:00:27;;;;;;;1.67;1.58;;;;;;;;;;12773707;23;20281;-84
2023/09/17 01:05:38;;;;;;;4.07;1.88;;;;;;;;;;12773666;23;20550;-83
2023/09/17 01:10:42;;;;;;;1.70;1.60;;;;;;;;;;12774276;23;20029;-84
2023/09/17 01:15:45;;;;;;;2.50;1.70;;;;;;;;;;12749224;23;20497;-84
2023/09/17 01:21:00;;;;;;;1.80;1.35;;;;;;;;;;12766484;23;20112;-83
2023/09/17 01:26:12;;;;;;;1.52;1.40;;;;;;;;;;12768394;23;20025;-83
2023/09/17 01:31:17;;;;;;;1.25;1.15;;;;;;;;;;12770781;23;20099;-83
2023/09/17 01:36:27;;;;;;;3.17;1.42;;;;;;;;;;12768371;23;20103;-83
2023/09/17 01:41:30;;;;;;;1.77;1.60;;;;;;;;;;12858126;23;20107;-77
2023/09/17 01:46:36;;;;;;;1.90;1.67;;;;;;;;;;12920403;22;20107;-77
2023/09/17 01:51:40;;;;;;;2.05;1.85;;;;;;;;;;12910309;23;20016;-77
2023/09/17 01:56:43;;;;;;;2.22;1.80;;;;;;;;;;12886663;23;20100;-77
2023/09/17 02:01:48;;;;;;;4.18;1.83;;;;;;;;;;12911863;23;20075;-77
2023/09/17 02:06:53;;;;;;;2.67;1.75;;;;;;;;;;12918955;22;20047;-77
2023/09/17 02:11:57;;;;;;;2.00;1.80;;;;;;;;;;12919599;22;20028;-77
2023/09/17 02:17:04;;;;;;;1.92;1.73;;;;;;;;;;12917914;22;20028;-77
2023/09/17 02:22:07;;;;;;;7.90;2.03;;;;;;;;;;12915537;23;20055;-77
2023/09/17 02:27:10;;;;;;;3.10;1.58;;;;;;;;;;12918372;23;20036;-77
2023/09/17 02:32:15;;;;;;;1.55;1.45;;;;;;;;;;12924016;22;20369;-77
2023/09/17 02:37:18;;;;;;;1.45;1.35;;;;;;;;;;12891940;23;20063;-77
2023/09/17 02:42:23;;;;;;;1.58;1.42;;;;;;;;;;12891384;23;20404;-77
2023/09/17 02:47:27;;;;;;;2.05;1.60;;;;;;;;;;12919866;22;20091;-77
2023/09/17 02:52:31;;;;;;;1.92;1.60;;;;;;;;;;12915548;23;20103;-77
2023/09/17 02:57:34;;;;;;;1.40;1.30;;;;;;;;;;12916394;22;20051;-77
2023/09/17 03:02:40;;;;;;;1.58;1.42;;;;;;;;;;12915075;23;20095;-77
2023/09/17 03:07:43;;;;;;;1.50;1.40;;;;;;;;;;12916782;23;20099;-77
2023/09/17 03:12:47;;;;;;;2.38;1.60;;;;;;;;;;12918286;23;20411;-77
2023/09/17 03:17:52;;;;;;;2.83;1.52;;;;;;;;;;12892103;23;20483;-77
2023/09/17 03:22:57;;;;;;;2.05;1.48;;;;;;;;;;12892646;23;20086;-77
2023/09/17 03:28:00;;;;;;;1.63;1.52;;;;;;;;;;12914657;23;20028;-77
2023/09/17 03:33:06;;;;;;;2.42;1.77;;;;;;;;;;12905957;22;20033;-77
2023/09/17 03:38:19;;;;;;;2.10;1.45;;;;;;;;;;12948628;22;20016;-77
2023/09/17 03:43:22;;;;;;;2.95;1.58;;;;;;;;;;12935393;23;20020;-77
2023/09/17 03:48:27;;;;;;;2.05;1.85;;;;;;;;;;12935223;23;20024;-77
2023/09/17 03:53:31;;;;;;;2.13;1.80;;;;;;;;;;12889739;23;20471;-77
2023/09/17 03:58:35;;;;;;;2.95;2.10;;;;;;;;;;12913898;23;20027;-77
2023/09/17 04:03:40;;;;;;;2.13;1.92;;;;;;;;;;12933781;23;20028;-77
2023/09/17 04:08:44;;;;;;;3.65;1.90;;;;;;;;;;12888865;23;20027;-77
2023/09/17 04:13:48;;;;;;;2.25;1.30;;;;;;;;;;12891614;23;20024;-77
2023/09/17 04:18:52;;;;;;;2.97;1.80;;;;;;;;;;12890516;23;20095;-77
2023/09/17 04:23:56;;;;;;;3.08;1.52;;;;;;;;;;12935921;23;20110;-77
2023/09/17 04:28:59;;;;;;;1.67;1.50;;;;;;;;;;12891247;23;20043;-77
2023/09/17 04:34:04;;;;;;;1.60;1.50;;;;;;;;;;12936373;23;20031;-77
2023/09/17 04:39:09;;;;;;;3.28;1.42;;;;;;;;;;12891591;23;20099;-77
2023/09/17 04:44:13;;;;;;;;;;;;;;;;;;12892549;23;20031;-77
2023/09/17 04:49:18;;;;;;;1.77;1.60;;;;;;;;;;12890789;23;20258;-77
2023/09/17 04:54:22;;;;;;;2.85;1.63;;;;;;;;;;12891225;23;20032;-77
2023/09/17 04:59:28;;;;;;;2.42;1.75;;;;;;;;;;12891189;23;20044;-77
2023/09/17 05:04:33;;;;;;;2.30;1.70;;;;;;;;;;12892183;23;20086;-77
2023/09/17 05:09:37;;;;;;;1.87;1.70;;;;;;;;;;12891632;23;20030;-77
2023/09/17 05:14:41;;;;;;;2.42;2.05;;;;;;;;;;12932127;23;20031;-77
2023/09/17 05:19:47;;;;;;;2.17;1.70;;;;;;;;;;12891175;23;20034;-77
2023/09/17 05:24:51;;;;;;;2.42;1.60;;;;;;;;;;12891126;23;20024;-77
2023/09/17 05:29:54;;;;;;;1.98;1.75;;;;;;;;;;12930449;23;20424;-77
2023/09/17 05:35:02;;;;;;;1.60;1.50;;;;;;;;;;12890522;23;20090;-77
2023/09/17 05:40:07;;;;;;;1.73;1.63;;;;;;;;;;12890673;23;20258;-77
2023/09/17 05:45:10;;;;;;;4.38;1.88;;;;;;;;;;12929719;23;20027;-77
2023/09/17 05:50:17;;;;;;;2.08;1.60;;;;;;;;;;12890694;23;20024;-77
2023/09/17 05:55:20;;;;;;;2.28;1.67;;;;;;;;;;12928571;23;20034;-77
2023/09/17 06:00:24;;;;;;;2.33;1.77;;;;;;;;;;12891962;23;20028;-77
2023/09/17 06:05:28;;;;;;;2.28;1.95;;;;;;;;;;12893830;23;20040;-77
2023/09/17 06:10:32;;;;;;;2.10;1.88;;;;;;;;;;12893973;23;20024;-77
2023/09/17 06:15:35;;;;;;;1.88;1.63;;;;;;;;;;12920742;23;20034;-77
2023/09/17 06:20:40;;;;;;;1.83;1.60;;;;;;;;;;12902127;23;20031;-78
2023/09/17 06:25:43;;;;;;;2.30;1.77;;;;;;;;;;12904644;23;20402;-77
2023/09/17 06:30:48;;;;;;;2.92;1.83;;;;;;;;;;12894669;23;20020;-77
2023/09/17 06:35:53;;;;;;;1.77;1.50;;;;;;;;;;12918702;23;20352;-77
2023/09/17 06:40:56;;;;;;;1.80;1.60;;;;;;;;;;12929708;23;20019;-77
2023/09/17 06:45:59;;;;;;;3.17;1.85;;;;;;;;;;12929600;23;20031;-77
2023/09/17 06:51:04;;;;;;;2.40;1.90;;;;;;;;;;12929288;23;20471;-77
2023/09/17 06:56:08;;;;;;;2.33;2.13;;;;;;;;;;12927892;23;20099;-77
2023/09/17 07:01:11;;;;;;;2.22;2.03;;;;;;;;;;12927468;23;20103;-77
2023/09/17 07:06:16;;;;;;;1.95;1.70;;;;;;;;;;12926424;23;20020;-77
2023/09/17 07:11:19;;;;;;;3.63;2.25;;;;;;;;;;12926865;23;20471;-77
2023/09/17 07:16:23;;;;;;;2.78;2.40;;;;;;;;;;12926109;23;20028;-77
2023/09/17 07:21:28;;;;;;;4.32;2.17;;;;;;;;;;12920326;23;20020;-77
2023/09/17 07:26:31;;;;;;;3.83;2.10;;;;;;;;;;12924989;22;20099;-77
2023/09/17 07:31:35;;;;;;;2.22;1.92;;;;;;;;;;12925364;22;20412;-77
2023/09/17 07:36:39;;;;;;;1.70;1.50;;;;;;;;;;12925404;22;20059;-77
2023/09/17 07:41:43;;;;;;;2.53;1.85;;;;;;;;;;12855554;22;20020;-91
2023/09/17 07:46:47;;;;;;;3.72;1.92;;;;;;;;;;12872287;22;20028;-84
2023/09/17 07:51:53;;;;;;;3.08;2.15;;;;;;;;;;12898355;23;20902;-83
2023/09/17 07:56:57;;;;;;;1.67;1.58;;;;;;;;;;12895977;23;20356;-84
2023/09/17 08:02:00;;;;;;;3.17;1.70;;;;;;;;;;12874916;23;20488;-84
2023/09/17 08:07:05;;;;;;;2.00;1.80;;;;;;;;;;12923086;22;20106;-84
2023/09/17 08:12:09;;;;;;;2.73;1.90;;;;;;;;;;12913967;22;20032;-84
2023/09/17 08:17:13;;;;;;;2.95;2.10;;;;;;;;;;12901684;23;20024;-84
2023/09/17 08:22:18;;;;;;;2.50;2.30;;;;;;;;;;12900013;23;20031;-84
2023/09/17 08:27:22;;;;;;;2.85;2.35;;;;;;;;;;12871131;23;20020;-84
2023/09/17 08:32:25;;;;;;;2.20;1.80;;;;;;;;;;12894736;23;20039;-84
2023/09/17 08:37:30;;;;;;;3.03;2.40;;;;;;;;;;12873095;23;20028;-84
2023/09/17 08:42:33;;;;;;;2.03;1.77;;;;;;;;;;12873181;23;20032;-84
2023/09/17 08:47:37;;;;;;;2.22;1.88;;;;;;;;;;12872346;23;20035;-83
2023/09/17 08:52:47;;;;;;;3.67;1.90;;;;;;;;;;12932443;22;20517;-83
2023/09/17 08:57:54;;;;;;;1.95;1.77;;;;;;;;;;12934596;22;20020;-84
2023/09/17 09:03:04;;;;;;;2.75;1.80;;;;;;;;;;12902140;22;20370;-84
2023/09/17 09:08:10;;;;;;;3.10;2.30;;;;;;;;;;12935622;22;20388;-84
2023/09/17 09:13:14;;;;;;;1.75;1.50;;;;;;;;;;12874019;22;20031;-83
2023/09/17 09:18:17;;;;;;;3.38;2.13;;;;;;;;;;12872604;22;20493;-84
2023/09/17 09:23:23;;;;;;;3.17;1.98;;;;;;;;;;12874916;22;20098;-83
2023/09/17 09:28:31;;;;;;;1.85;1.50;;;;;;;;;;12872608;22;20075;-83
2023/09/17 09:33:36;;;;;;;3.10;1.70;;;;;;;;;;12872713;22;20046;-84
2023/09/17 09:38:41;;;;;;;;;;;;;;;;;;12906285;22;20662;-84
2023/09/17 09:43:44;;;;;;;1.83;1.50;;;;;;;;;;12878686;22;19915;-84
2023/09/17 09:48:50;;;;;;;2.55;1.60;;;;;;;;;;12877111;22;20027;-83
2023/09/17 09:53:56;;;;;;;2.55;1.50;;;;;;;;;;12906561;22;20792;-87
2023/09/17 09:59:01;;;;;;;2.65;1.40;;;;;;;;;;12877605;22;20411;-83
2023/09/17 10:04:08;;;;;;;1.73;1.42;;;;;;;;;;12878546;22;20071;-83
2023/09/17 10:09:15;;;;;;;2.42;1.70;;;;;;;;;;12906280;22;20047;-84
2023/09/17 10:14:21;;;;;;;3.22;2.20;;;;;;;;;;12902331;22;20024;-84
2023/09/17 10:19:26;;;;;;;1.70;1.60;;;;;;;;;;12903215;22;20024;-84
2023/09/17 10:24:32;;;;;;;1.83;1.45;;;;;;;;;;12901837;22;20043;-84
2023/09/17 10:29:38;;;;;;;2.33;1.70;;;;;;;;;;12869097;22;20024;-84
2023/09/17 10:34:42;;;;;;;2.20;1.92;;;;;;;;;;12871395;22;20028;-85
2023/09/17 10:39:48;;;;;;;2.50;1.67;;;;;;;;;;12867924;22;20091;-84
2023/09/17 10:44:56;;;;;;;2.83;2.00;;;;;;;;;;12913424;22;20028;-84
2023/09/17 10:50:00;;;;;;;3.78;2.05;;;;;;;;;;12866948;22;20030;-84
2023/09/17 10:55:07;;;;;;;2.50;1.70;;;;;;;;;;12875377;22;20028;-84
2023/09/17 11:00:17;;;;;;;2.90;2.00;;;;;;;;;;12869520;22;20024;-85
2023/09/17 11:05:24;;;;;;;2.38;1.63;;;;;;;;;;12875827;22;20655;-84
2023/09/17 11:10:29;;;;;;;2.85;2.00;;;;;;;;;;12870582;22;20020;-84
2023/09/17 11:15:35;;;;;;;3.97;2.35;;;;;;;;;;12875511;22;20083;-85
2023/09/17 11:21:00;;;;;;;2.33;1.65;;;;;;;;;;12867606;22;20051;-84
2023/09/17 11:26:06;;;;;;;3.03;1.73;;;;;;;;;;12875796;22;20404;-84
2023/09/17 11:31:13;;;;;;;2.97;1.58;;;;;;;;;;12908397;22;20024;-84
2023/09/17 11:36:16;;;;;;;1.50;1.40;;;;;;;;;;12900361;23;20079;-87
2023/09/17 11:41:28;;;;;;;2.30;1.55;;;;;;;;;;12881364;23;20020;-86
2023/09/17 11:46:33;;;;;;;2.65;1.60;;;;;;;;;;12923426;22;20023;-87
2023/09/17 11:51:42;;;;;;;2.63;1.50;;;;;;;;;;12965967;22;20016;-86
2023/09/17 11:56:53;;;;;;;1.80;1.40;;;;;;;;;;12943243;22;20150;-87
2023/09/17 12:01:58;;;;;;;1.83;1.55;;;;;;;;;;12940224;22;20718;-86
2023/09/17 12:07:07;;;;;;;2.23;1.50;;;;;;;;;;12971224;22;20039;-86
2023/09/17 12:12:12;;;;;;;1.77;1.20;;;;;;;;;;12969205;22;20069;-86
2023/09/17 12:17:17;;;;;;;1.85;1.42;;;;;;;;;;12967776;22;20024;-86
2023/09/17 12:22:20;;;;;;;2.80;1.43;;;;;;;;;;12936525;22;20020;-85
2023/09/17 12:27:29;;;;;;;3.58;1.40;;;;;;;;;;12940832;22;20361;-89
2023/09/17 12:32:34;;;;;;;2.25;1.38;;;;;;;;;;12940057;22;20020;-85
2023/09/17 12:37:37;;;;;;;2.00;1.17;;;;;;;;;;12974710;22;20491;-86
2023/09/17 12:42:42;;;;;;;2.58;1.15;;;;;;;;;;12970360;22;20360;-87
2023/09/17 12:47:45;;;;;;;2.03;1.50;;;;;;;;;;12969506;22;20031;-86
2023/09/17 12:52:55;;;;;;;2.90;1.92;;;;;;;;;;12938599;22;20583;-86
2023/09/17 13:04:37;;;;;;;1.73;1.50;;;;;;;;;;12970342;22;20480;-88
2023/09/17 13:09:41;;;;;;;2.95;1.50;;;;;;;;;;12969537;22;20038;-87
2023/09/17 13:14:47;;;;;;;1.88;1.30;;;;;;;;;;12985271;22;20070;-86
2023/09/17 13:19:52;;;;;;;2.05;1.27;;;;;;;;;;12970104;22;20020;-86
2023/09/17 13:24:57;;;;;;;;;;;;;;;;;;12944089;22;20360;-85
2023/09/17 13:30:00;;;;;;;2.85;1.48;;;;;;;;;;12940058;22;19915;-86
2023/09/17 13:35:16;;;;;;;2.67;1.15;;;;;;;;;;12936248;22;20368;-87
2023/09/17 13:40:26;;;;;;;1.95;1.27;;;;;;;;;;12908920;22;20027;-76
2023/09/17 13:45:30;;;;;;;2.22;1.17;;;;;;;;;;12911095;22;20103;-75
2023/09/17 13:50:34;;;;;;;2.40;1.40;;;;;;;;;;12982517;22;20016;-75
2023/09/17 13:55:38;;;;;;;3.53;1.50;;;;;;;;;;12986825;22;20023;-75
2023/09/17 14:00:42;;;;;;;1.95;1.25;;;;;;;;;;12977661;22;20015;-75
2023/09/17 14:05:47;;;;;;;1.50;1.30;;;;;;;;;;12986081;22;20027;-75
2023/09/17 14:10:50;;;;;;;1.33;1.17;;;;;;;;;;12986739;22;20083;-75
2023/09/17 14:15:54;;;;;;;1.52;0.95;;;;;;;;;;12977339;22;20390;-75
2023/09/17 14:21:00;;;;;;;2.20;0.98;;;;;;;;;;12986579;22;20047;-75
2023/09/17 14:26:03;;;;;;;2.88;1.30;;;;;;;;;;12979547;22;20386;-75
2023/09/17 14:31:06;;;;;;;1.77;1.10;;;;;;;;;;12989354;22;20530;-75
2023/09/17 14:36:11;;;;;;;3.70;1.50;;;;;;;;;;12982543;22;20030;-77
2023/09/17 14:41:14;;;;;;;1.75;1.13;;;;;;;;;;12992943;22;20458;-78
2023/09/17 14:46:17;;;;;;;3.15;0.93;;;;;;;;;;12992984;22;20024;-78
2023/09/17 14:51:22;;;;;;;2.67;1.25;;;;;;;;;;12993747;22;20038;-78
2023/09/17 14:56:26;;;;;;;2.92;1.45;;;;;;;;;;12996231;22;20102;-78
2023/09/17 15:01:29;;;;;;;1.85;1.10;;;;;;;;;;12993474;22;20022;-78
2023/09/17 15:06:43;;;;;;;1.60;1.08;;;;;;;;;;12991735;22;20024;-78
2023/09/17 15:11:47;;;;;;;2.92;1.67;;;;;;;;;;12983563;22;20103;-75
2023/09/17 15:16:50;;;;;;;2.92;0.95;;;;;;;;;;12985285;22;20119;-75
2023/09/17 15:21:55;;;;;;;4.70;1.50;;;;;;;;;;12985530;22;20450;-75
2023/09/17 15:26:58;;;;;;;3.67;1.48;;;;;;;;;;12984429;22;20035;-75
2023/09/17 15:32:03;;;;;;;2.47;1.38;;;;;;;;;;12984670;22;20030;-75
2023/09/17 15:37:08;;;;;;;5.97;2.00;;;;;;;;;;12983919;22;20085;-75
2023/09/17 15:42:11;;;;;;;2.05;1.30;;;;;;;;;;12993992;22;20039;-78
2023/09/17 15:47:14;;;;;;;3.28;1.42;;;;;;;;;;13000962;22;20015;-78
2023/09/17 15:52:19;;;;;;;2.80;1.08;;;;;;;;;;12963388;22;20023;-78
2023/09/17 15:57:22;;;;;;;3.38;1.20;;;;;;;;;;12989058;22;20107;-78
2023/09/17 16:02:25;;;;;;;5.43;1.35;;;;;;;;;;12987486;22;20054;-77
2023/09/17 16:07:32;;;;;;;3.08;1.42;;;;;;;;;;12986358;22;20023;-78
2023/09/17 16:12:36;;;;;;;2.33;1.20;;;;;;;;;;12985633;22;20098;-78
2023/09/17 16:17:39;;;;;;;1.67;1.17;;;;;;;;;;12985444;22;20103;-78
2023/09/17 16:22:44;;;;;;;1.90;1.35;;;;;;;;;;12985339;22;20019;-77
2023/09/17 16:27:47;;;;;;;1.80;1.15;;;;;;;;;;12977778;22;20077;-78
2023/09/17 16:32:50;;;;;;;2.28;1.60;;;;;;;;;;12981788;22;20019;-78
2023/09/17 16:37:55;;;;;;;2.55;1.55;;;;;;;;;;12955340;22;20061;-78
2023/09/17 16:42:58;;;;;;;5.07;1.55;;;;;;;;;;12982938;22;20045;-78
2023/09/17 16:48:10;;;;;;;2.55;1.63;;;;;;;;;;12982236;22;20502;-77
2023/09/17 16:53:15;;;;;;;2.83;1.23;;;;;;;;;;12982777;22;20098;-78
2023/09/17 16:58:18;;;;;;;2.23;1.50;;;;;;;;;;13003788;22;20077;-78
2023/09/17 17:03:21;;;;;;;1.50;1.10;;;;;;;;;;13000157;22;20073;-78
2023/09/17 17:08:26;;;;;;;2.88;1.30;;;;;;;;;;13002026;22;20023;-78
2023/09/17 17:13:30;;;;;;;2.42;1.45;;;;;;;;;;13000502;22;20034;-78
2023/09/17 17:18:34;;;;;;;1.77;1.33;;;;;;;;;;13001316;22;20027;-78
2023/09/17 17:23:39;;;;;;;2.72;1.40;;;;;;;;;;13000476;22;20506;-78
2023/09/17 17:28:42;;;;;;;2.87;1.50;;;;;;;;;;12999897;22;20091;-78
2023/09/17 17:33:45;;;;;;;3.97;1.80;;;;;;;;;;12981965;22;20016;-78
2023/09/17 17:38:50;;;;;;;3.42;1.65;;;;;;;;;;13000123;22;20024;-78
2023/09/17 17:43:54;;;;;;;2.10;1.30;;;;;;;;;;12999699;22;20020;-78
2023/09/17 17:48:57;;;;;;;1.92;1.45;;;;;;;;;;12999858;22;20020;-78
2023/09/17 17:54:03;;;;;;;2.97;1.52;;;;;;;;;;12988017;22;20070;-78
2023/09/17 17:59:07;;;;;;;2.77;1.90;;;;;;;;;;13009356;22;20436;-78
2023/09/17 18:04:10;;;;;;;2.92;1.70;;;;;;;;;;13002767;22;20028;-78
2023/09/17 18:09:15;;;;;;;2.58;1.40;;;;;;;;;;13000575;22;20032;-78
2023/09/17 18:14:19;;;;;;;2.30;1.67;;;;;;;;;;13001335;22;20359;-78
2023/09/17 18:19:22;;;;;;;1.92;1.45;;;;;;;;;;12999083;22;20051;-78
2023/09/17 18:24:28;;;;;;;3.55;1.70;;;;;;;;;;12985070;22;20046;-78
2023/09/17 18:29:31;;;;;;;2.60;1.35;;;;;;;;;;13000020;22;20024;-78
2023/09/17 18:34:35;;;;;;;3.10;1.60;;;;;;;;;;12979927;22;20024;-78
2023/09/17 18:39:39;;;;;;;2.35;1.60;;;;;;;;;;12995895;22;20092;-78
2023/09/17 18:44:42;;;;;;;5.28;2.22;;;;;;;;;;12997262;22;20385;-78
2023/09/17 18:49:47;;;;;;;2.92;1.70;;;;;;;;;;12997561;22;20024;-78
2023/09/17 18:54:54;;;;;;;2.87;1.60;;;;;;;;;;12956423;22;20045;-78
2023/09/17 18:59:57;;;;;;;3.03;1.70;;;;;;;;;;12995679;22;20042;-78
2023/09/17 19:05:00;;;;;;;2.60;1.70;;;;;;;;;;12994067;22;20082;-78
2023/09/17 19:10:06;;;;;;;4.30;1.65;;;;;;;;;;12997437;22;20020;-78
2023/09/17 19:15:10;;;;;;;2.85;1.80;;;;;;;;;;12994154;22;20494;-78
2023/09/17 19:20:13;;;;;;;3.25;1.80;;;;;;;;;;12996752;22;20551;-77
2023/09/17 19:25:18;;;;;;;1.90;1.63;;;;;;;;;;12981129;22;20024;-78
2023/09/17 19:30:25;;;;;;;5.70;2.03;;;;;;;;;;12981868;22;20058;-78
2023/09/17 19:35:30;;;;;;;3.85;1.90;;;;;;;;;;12950063;22;20402;-78
2023/09/17 19:40:35;;;;;;;3.10;1.67;;;;;;;;;;12991023;22;20028;-78
2023/09/17 19:45:38;;;;;;;2.53;1.80;;;;;;;;;;12988179;22;20030;-78
2023/09/17 19:50:42;;;;;;;4.30;1.70;;;;;;;;;;12993825;22;20066;-78
2023/09/17 19:55:47;;;;;;;2.95;1.60;;;;;;;;;;12991955;22;20094;-78
2023/09/17 20:00:50;;;;;;;1.97;1.40;;;;;;;;;;12993266;22;20030;-79
2023/09/17 20:05:53;;;;;;;2.97;1.63;;;;;;;;;;13000337;22;20020;-79
2023/09/17 20:10:58;;;;;;;2.70;1.88;;;;;;;;;;13002984;22;20031;-78
2023/09/17 20:16:02;;;;;;;2.07;1.57;;;;;;;;;;12993877;22;20489;-79
2023/09/17 20:21:07;;;;;;;3.35;1.73;;;;;;;;;;12985722;22;20027;-78
2023/09/17 20:26:11;;;;;;;1.70;1.37;;;;;;;;;;12981972;22;20218;-78
2023/09/17 20:31:15;;;;;;;4.10;2.07;;;;;;;;;;12991186;22;20023;-78
2023/09/17 20:36:18;;;;;;;2.92;1.80;;;;;;;;;;12988390;22;20024;-78
2023/09/17 20:41:23;;;;;;;2.03;1.67;;;;;;;;;;12989635;22;20038;-78
2023/09/17 20:46:26;;;;;;;2.80;1.60;;;;;;;;;;12981809;22;20498;-78
2023/09/17 20:51:31;;;;;;;3.60;1.98;;;;;;;;;;12992355;22;20095;-78
2023/09/17 20:56:36;;;;;;;3.53;1.67;;;;;;;;;;12990327;22;20058;-78
2023/09/17 21:01:39;;;;;;;2.20;1.40;;;;;;;;;;12956759;22;20027;-78
2023/09/17 21:06:43;;;;;;;2.45;1.90;;;;;;;;;;12992700;22;20081;-78
2023/09/17 21:11:47;;;;;;;3.90;1.65;;;;;;;;;;12994863;22;20409;-78
2023/09/17 21:16:51;;;;;;;3.20;1.40;;;;;;;;;;12988352;22;20813;-78
2023/09/17 21:21:54;;;;;;;1.77;1.63;;;;;;;;;;12994957;22;20024;-78
2023/09/17 21:26:59;;;;;;;2.13;1.80;;;;;;;;;;12992275;22;20384;-78
2023/09/17 21:32:03;;;;;;;3.05;1.70;;;;;;;;;;12992314;22;20046;-78
2023/09/17 21:37:06;;;;;;;2.70;1.70;;;;;;;;;;12992589;22;20027;-78
2023/09/17 21:42:10;;;;;;;1.40;1.30;;;;;;;;;;12994163;22;20048;-78
2023/09/17 21:47:14;;;;;;;2.88;1.83;;;;;;;;;;12987164;22;20039;-78
2023/09/17 21:52:17;;;;;;;3.65;1.85;;;;;;;;;;12960552;22;20110;-78
2023/09/17 21:57:22;;;;;;;3.25;1.80;;;;;;;;;;12987849;22;20107;-78
2023/09/17 22:02:26;;;;;;;4.43;2.20;;;;;;;;;;12961648;22;20102;-78
2023/09/17 22:07:30;;;;;;;4.10;1.98;;;;;;;;;;12991164;22;20379;-78
2023/09/17 22:12:37;;;;;;;2.30;1.60;;;;;;;;;;12988630;22;20043;-78
2023/09/17 22:17:40;;;;;;;4.40;1.67;;;;;;;;;;12966004;22;20020;-79
2023/09/17 22:22:44;;;;;;;2.38;1.90;;;;;;;;;;12999194;22;20046;-79
2023/09/17 22:27:48;;;;;;;3.72;2.05;;;;;;;;;;12987518;22;20015;-78
2023/09/17 22:32:51;;;;;;;2.55;1.67;;;;;;;;;;12988169;22;20023;-78
2023/09/17 22:37:55;;;;;;;4.30;2.15;;;;;;;;;;12961083;22;20454;-78
2023/09/17 22:42:59;;;;;;;2.85;1.77;;;;;;;;;;12984940;22;20335;-78
2023/09/17 22:48:03;;;;;;;3.30;1.77;;;;;;;;;;12984242;22;20102;-78
2023/09/17 22:53:06;;;;;;;3.65;1.65;;;;;;;;;;12984124;22;20497;-78
2023/09/17 22:58:11;;;;;;;2.58;1.52;;;;;;;;;;13004867;22;20043;-78
2023/09/17 23:03:14;;;;;;;4.60;2.00;;;;;;;;;;12957105;22;20023;-78
2023/09/17 23:08:17;;;;;;;3.22;2.00;;;;;;;;;;13004063;22;20022;-78
2023/09/17 23:13:24;;;;;;;4.88;1.63;;;;;;;;;;12985365;22;20046;-78
2023/09/17 23:18:29;;;;;;;2.60;1.60;;;;;;;;;;13004005;22;20090;-78
2023/09/17 23:23:33;;;;;;;4.25;1.92;;;;;;;;;;12984739;22;20050;-78
2023/09/17 23:28:39;;;;;;;4.45;1.83;;;;;;;;;;13002747;22;20026;-78
2023/09/17 23:33:43;;;;;;;;;;;;;;;;;;12984896;22;20347;-77
2023/09/17 23:38:47;;;;;;;2.83;1.50;;;;;;;;;;13002202;22;19941;-78
2023/09/17 23:43:52;;;;;;;3.38;1.35;;;;;;;;;;12983902;22;20042;-78
2023/09/17 23:48:56;;;;;;;2.15;1.70;;;;;;;;;;13000801;22;20102;-77
2023/09/17 23:53:59;;;;;;;4.10;1.50;;;;;;;;;;13000813;22;20098;-78
2023/09/17 23:59:04;;;;;;;4.47;1.95;;;;;;;;;;12983409;22;20092;-78
